sensor_id;sensor_type;location;lat;lon;timestamp;temperature;humidity
51801;DHT22;37855;53.204;6.568;2022-12-10T00:00:38;-0.30;78.00
51801;DHT22;37855;53.204;6.568;2022-12-10T00:03:04;-0.30;78.00
51801;DHT22;37855;53.204;6.568;2022-12-10T00:05:30;-0.30;78.10
51801;DHT22;37855;53.204;6.568;2022-12-10T00:07:58;-0.30;78.10
51801;DHT22;37855;53.204;6.568;2022-12-10T00:10:23;-0.30;78.00
51801;DHT22;37855;53.204;6.568;2022-12-10T00:12:49;-0.30;78.00
51801;DHT22;37855;53.204;6.568;2022-12-10T00:15:14;-0.30;78.00
51801;DHT22;37855;53.204;6.568;2022-12-10T00:17:40;-0.30;78.00
51801;DHT22;37855;53.204;6.568;2022-12-10T00:20:06;-0.30;78.00
51801;DHT22;37855;53.204;6.568;2022-12-10T00:22:31;-0.30;78.00
51801;DHT22;37855;53.204;6.568;2022-12-10T00:24:57;-0.30;78.00
51801;DHT22;37855;53.204;6.568;2022-12-10T00:27:23;-0.30;78.00
51801;DHT22;37855;53.204;6.568;2022-12-10T00:29:48;-0.40;77.90
51801;DHT22;37855;53.204;6.568;2022-12-10T00:32:14;-0.40;78.10
51801;DHT22;37855;53.204;6.568;2022-12-10T00:34:39;-0.40;78.10
51801;DHT22;37855;53.204;6.568;2022-12-10T00:37:05;-0.40;78.10
51801;DHT22;37855;53.204;6.568;2022-12-10T00:39:30;-0.40;78.00
51801;DHT22;37855;53.204;6.568;2022-12-10T00:41:56;-0.40;78.00
51801;DHT22;37855;53.204;6.568;2022-12-10T00:44:21;-0.40;77.90
51801;DHT22;37855;53.204;6.568;2022-12-10T00:46:47;-0.40;78.00
51801;DHT22;37855;53.204;6.568;2022-12-10T00:49:12;-0.40;78.10
51801;DHT22;37855;53.204;6.568;2022-12-10T00:51:39;-0.40;78.00
51801;DHT22;37855;53.204;6.568;2022-12-10T00:54:04;-0.40;78.00
51801;DHT22;37855;53.204;6.568;2022-12-10T00:56:31;-0.40;78.10
51801;DHT22;37855;53.204;6.568;2022-12-10T00:58:57;-0.40;78.00
51801;DHT22;37855;53.204;6.568;2022-12-10T01:01:33;-0.40;78.00
51801;DHT22;37855;53.204;6.568;2022-12-10T01:04:03;-0.40;78.10
51801;DHT22;37855;53.204;6.568;2022-12-10T01:06:30;-0.40;78.10
51801;DHT22;37855;53.204;6.568;2022-12-10T01:08:57;-0.50;78.10
51801;DHT22;37855;53.204;6.568;2022-12-10T01:11:24;-0.50;78.20
51801;DHT22;37855;53.204;6.568;2022-12-10T01:13:50;-0.50;78.20
51801;DHT22;37855;53.204;6.568;2022-12-10T01:16:17;-0.50;78.20
51801;DHT22;37855;53.204;6.568;2022-12-10T01:18:43;-0.50;78.30
51801;DHT22;37855;53.204;6.568;2022-12-10T01:21:10;-0.50;78.30
51801;DHT22;37855;53.204;6.568;2022-12-10T01:23:40;-0.50;78.30
51801;DHT22;37855;53.204;6.568;2022-12-10T01:26:07;-0.50;78.20
51801;DHT22;37855;53.204;6.568;2022-12-10T01:28:34;-0.50;78.20
51801;DHT22;37855;53.204;6.568;2022-12-10T01:31:04;-0.50;78.30
51801;DHT22;37855;53.204;6.568;2022-12-10T01:33:33;-0.50;78.20
51801;DHT22;37855;53.204;6.568;2022-12-10T01:36:06;-0.50;78.20
51801;DHT22;37855;53.204;6.568;2022-12-10T01:38:32;-0.50;78.20
51801;DHT22;37855;53.204;6.568;2022-12-10T01:40:58;-0.50;78.20
51801;DHT22;37855;53.204;6.568;2022-12-10T01:43:24;-0.50;78.20
51801;DHT22;37855;53.204;6.568;2022-12-10T01:45:49;-0.50;78.20
51801;DHT22;37855;53.204;6.568;2022-12-10T01:48:15;-0.50;78.20
51801;DHT22;37855;53.204;6.568;2022-12-10T01:50:41;-0.50;78.20
51801;DHT22;37855;53.204;6.568;2022-12-10T01:53:09;-0.50;78.30
51801;DHT22;37855;53.204;6.568;2022-12-10T01:55:45;-0.50;78.20
51801;DHT22;37855;53.204;6.568;2022-12-10T01:58:11;-0.50;78.20
51801;DHT22;37855;53.204;6.568;2022-12-10T02:00:38;-0.60;78.30
51801;DHT22;37855;53.204;6.568;2022-12-10T02:03:08;-0.60;78.30
51801;DHT22;37855;53.204;6.568;2022-12-10T02:05:49;-0.60;78.30
51801;DHT22;37855;53.204;6.568;2022-12-10T02:08:19;-0.60;78.30
51801;DHT22;37855;53.204;6.568;2022-12-10T02:10:54;-0.60;78.30
51801;DHT22;37855;53.204;6.568;2022-12-10T02:15:52;-0.60;78.30
51801;DHT22;37855;53.204;6.568;2022-12-10T02:18:25;-0.60;78.30
51801;DHT22;37855;53.204;6.568;2022-12-10T02:20:54;-0.60;78.30
51801;DHT22;37855;53.204;6.568;2022-12-10T02:25:58;-0.60;78.30
51801;DHT22;37855;53.204;6.568;2022-12-10T02:30:50;-0.60;78.30
51801;DHT22;37855;53.204;6.568;2022-12-10T02:33:17;-0.60;78.30
51801;DHT22;37855;53.204;6.568;2022-12-10T02:35:44;-0.60;78.40
51801;DHT22;37855;53.204;6.568;2022-12-10T02:38:45;-0.60;78.40
51801;DHT22;37855;53.204;6.568;2022-12-10T02:41:08;-0.60;78.40
51801;DHT22;37855;53.204;6.568;2022-12-10T02:43:35;-0.60;78.50
51801;DHT22;37855;53.204;6.568;2022-12-10T02:46:02;-0.60;78.40
51801;DHT22;37855;53.204;6.568;2022-12-10T02:48:28;-0.60;78.40
51801;DHT22;37855;53.204;6.568;2022-12-10T02:50:55;-0.60;78.40
51801;DHT22;37855;53.204;6.568;2022-12-10T02:53:20;-0.60;78.30
51801;DHT22;37855;53.204;6.568;2022-12-10T02:55:59;-0.50;78.40
51801;DHT22;37855;53.204;6.568;2022-12-10T02:58:32;-0.60;78.30
51801;DHT22;37855;53.204;6.568;2022-12-10T03:01:07;-0.60;78.30
51801;DHT22;37855;53.204;6.568;2022-12-10T03:03:37;-0.50;78.30
51801;DHT22;37855;53.204;6.568;2022-12-10T03:06:17;-0.60;78.20
51801;DHT22;37855;53.204;6.568;2022-12-10T03:09:21;-0.60;78.30
51801;DHT22;37855;53.204;6.568;2022-12-10T03:11:39;-0.60;78.30
51801;DHT22;37855;53.204;6.568;2022-12-10T03:16:36;-0.60;78.40
51801;DHT22;37855;53.204;6.568;2022-12-10T03:19:06;-0.60;78.40
51801;DHT22;37855;53.204;6.568;2022-12-10T03:21:33;-0.60;78.40
51801;DHT22;37855;53.204;6.568;2022-12-10T03:23:59;-0.60;78.30
51801;DHT22;37855;53.204;6.568;2022-12-10T03:26:25;-0.60;78.30
51801;DHT22;37855;53.204;6.568;2022-12-10T03:29:00;-0.60;78.40
51801;DHT22;37855;53.204;6.568;2022-12-10T03:31:27;-0.60;78.30
51801;DHT22;37855;53.204;6.568;2022-12-10T03:33:53;-0.70;78.30
51801;DHT22;37855;53.204;6.568;2022-12-10T03:36:19;-0.70;78.40
51801;DHT22;37855;53.204;6.568;2022-12-10T03:38:45;-0.70;78.40
51801;DHT22;37855;53.204;6.568;2022-12-10T03:41:11;-0.70;78.50
51801;DHT22;37855;53.204;6.568;2022-12-10T03:43:49;-0.70;78.40
51801;DHT22;37855;53.204;6.568;2022-12-10T03:46:14;-0.60;78.40
51801;DHT22;37855;53.204;6.568;2022-12-10T03:48:40;-0.60;78.30
51801;DHT22;37855;53.204;6.568;2022-12-10T03:51:05;-0.60;78.20
51801;DHT22;37855;53.204;6.568;2022-12-10T03:53:31;-0.70;78.10
51801;DHT22;37855;53.204;6.568;2022-12-10T03:55:56;-0.70;78.20
51801;DHT22;37855;53.204;6.568;2022-12-10T03:58:22;-0.70;78.20
51801;DHT22;37855;53.204;6.568;2022-12-10T04:00:47;-0.70;78.20
51801;DHT22;37855;53.204;6.568;2022-12-10T04:03:13;-0.70;78.30
51801;DHT22;37855;53.204;6.568;2022-12-10T04:05:38;-0.70;78.30
51801;DHT22;37855;53.204;6.568;2022-12-10T04:08:04;-0.70;78.20
51801;DHT22;37855;53.204;6.568;2022-12-10T04:10:29;-0.70;78.20
51801;DHT22;37855;53.204;6.568;2022-12-10T04:12:55;-0.70;78.20
51801;DHT22;37855;53.204;6.568;2022-12-10T04:15:39;-0.70;78.10
51801;DHT22;37855;53.204;6.568;2022-12-10T04:18:23;-0.80;78.20
51801;DHT22;37855;53.204;6.568;2022-12-10T04:20:48;-0.80;78.30
51801;DHT22;37855;53.204;6.568;2022-12-10T04:23:35;-0.80;78.30
51801;DHT22;37855;53.204;6.568;2022-12-10T04:26:20;-0.80;78.30
51801;DHT22;37855;53.204;6.568;2022-12-10T04:29:04;-0.80;78.30
51801;DHT22;37855;53.204;6.568;2022-12-10T04:31:30;-0.80;78.30
51801;DHT22;37855;53.204;6.568;2022-12-10T04:33:56;-0.80;78.20
51801;DHT22;37855;53.204;6.568;2022-12-10T04:36:21;-0.80;78.20
51801;DHT22;37855;53.204;6.568;2022-12-10T04:38:47;-0.80;78.20
51801;DHT22;37855;53.204;6.568;2022-12-10T04:41:12;-0.90;78.10
51801;DHT22;37855;53.204;6.568;2022-12-10T04:43:41;-0.90;78.20
51801;DHT22;37855;53.204;6.568;2022-12-10T04:46:08;-0.90;78.20
51801;DHT22;37855;53.204;6.568;2022-12-10T04:48:37;-0.90;78.20
51801;DHT22;37855;53.204;6.568;2022-12-10T04:51:02;-0.90;78.30
51801;DHT22;37855;53.204;6.568;2022-12-10T04:53:28;-0.90;78.20
51801;DHT22;37855;53.204;6.568;2022-12-10T04:55:57;-0.90;78.10
51801;DHT22;37855;53.204;6.568;2022-12-10T04:58:22;-0.90;78.30
51801;DHT22;37855;53.204;6.568;2022-12-10T05:00:48;-0.90;78.30
51801;DHT22;37855;53.204;6.568;2022-12-10T05:03:14;-1.00;78.50
51801;DHT22;37855;53.204;6.568;2022-12-10T05:05:39;-0.90;78.60
51801;DHT22;37855;53.204;6.568;2022-12-10T05:08:08;-0.90;78.70
51801;DHT22;37855;53.204;6.568;2022-12-10T05:10:34;-0.90;78.80
51801;DHT22;37855;53.204;6.568;2022-12-10T05:13:00;-0.90;78.80
51801;DHT22;37855;53.204;6.568;2022-12-10T05:15:25;-0.80;78.80
51801;DHT22;37855;53.204;6.568;2022-12-10T05:17:51;-0.90;78.80
51801;DHT22;37855;53.204;6.568;2022-12-10T05:20:19;-0.80;78.90
51801;DHT22;37855;53.204;6.568;2022-12-10T05:22:45;-0.80;79.00
51801;DHT22;37855;53.204;6.568;2022-12-10T05:25:29;-0.80;79.10
51801;DHT22;37855;53.204;6.568;2022-12-10T05:27:54;-0.70;79.10
51801;DHT22;37855;53.204;6.568;2022-12-10T05:30:20;-0.70;79.00
51801;DHT22;37855;53.204;6.568;2022-12-10T05:32:45;-0.70;78.90
51801;DHT22;37855;53.204;6.568;2022-12-10T05:35:12;-0.60;78.90
51801;DHT22;37855;53.204;6.568;2022-12-10T05:37:37;-0.70;78.90
51801;DHT22;37855;53.204;6.568;2022-12-10T05:40:03;-0.60;78.90
51801;DHT22;37855;53.204;6.568;2022-12-10T05:42:29;-0.70;78.90
51801;DHT22;37855;53.204;6.568;2022-12-10T05:44:55;-0.70;79.00
51801;DHT22;37855;53.204;6.568;2022-12-10T05:47:20;-0.70;79.10
51801;DHT22;37855;53.204;6.568;2022-12-10T05:49:46;-0.70;79.20
51801;DHT22;37855;53.204;6.568;2022-12-10T05:52:12;-0.70;79.30
51801;DHT22;37855;53.204;6.568;2022-12-10T05:54:38;-0.70;79.40
51801;DHT22;37855;53.204;6.568;2022-12-10T05:57:03;-0.70;79.40
51801;DHT22;37855;53.204;6.568;2022-12-10T05:59:29;-0.70;79.50
51801;DHT22;37855;53.204;6.568;2022-12-10T06:01:54;-0.70;79.60
51801;DHT22;37855;53.204;6.568;2022-12-10T06:04:20;-0.70;79.70
51801;DHT22;37855;53.204;6.568;2022-12-10T06:06:45;-0.70;79.70
51801;DHT22;37855;53.204;6.568;2022-12-10T06:09:13;-0.70;79.80
51801;DHT22;37855;53.204;6.568;2022-12-10T06:11:39;-0.70;79.80
51801;DHT22;37855;53.204;6.568;2022-12-10T06:14:05;-0.60;79.80
51801;DHT22;37855;53.204;6.568;2022-12-10T06:16:31;-0.60;79.80
51801;DHT22;37855;53.204;6.568;2022-12-10T06:18:57;-0.60;79.80
51801;DHT22;37855;53.204;6.568;2022-12-10T06:21:23;-0.60;79.80
51801;DHT22;37855;53.204;6.568;2022-12-10T06:23:49;-0.60;79.80
51801;DHT22;37855;53.204;6.568;2022-12-10T06:26:17;-0.60;79.90
51801;DHT22;37855;53.204;6.568;2022-12-10T06:28:43;-0.60;79.90
51801;DHT22;37855;53.204;6.568;2022-12-10T06:31:09;-0.60;80.00
51801;DHT22;37855;53.204;6.568;2022-12-10T06:33:35;-0.60;80.00
51801;DHT22;37855;53.204;6.568;2022-12-10T06:36:02;-0.60;79.90
51801;DHT22;37855;53.204;6.568;2022-12-10T06:38:28;-0.60;79.90
51801;DHT22;37855;53.204;6.568;2022-12-10T06:40:53;-0.60;80.00
51801;DHT22;37855;53.204;6.568;2022-12-10T06:43:22;-0.60;79.90
51801;DHT22;37855;53.204;6.568;2022-12-10T06:45:47;-0.60;80.00
51801;DHT22;37855;53.204;6.568;2022-12-10T06:48:13;-0.60;80.00
51801;DHT22;37855;53.204;6.568;2022-12-10T06:50:39;-0.60;80.00
51801;DHT22;37855;53.204;6.568;2022-12-10T06:53:04;-0.60;80.10
51801;DHT22;37855;53.204;6.568;2022-12-10T06:55:30;-0.60;80.20
51801;DHT22;37855;53.204;6.568;2022-12-10T06:57:55;-0.60;80.20
51801;DHT22;37855;53.204;6.568;2022-12-10T07:00:21;-0.60;80.10
51801;DHT22;37855;53.204;6.568;2022-12-10T07:02:47;-0.60;80.10
51801;DHT22;37855;53.204;6.568;2022-12-10T07:05:14;-0.60;80.10
51801;DHT22;37855;53.204;6.568;2022-12-10T07:07:39;-0.60;80.10
51801;DHT22;37855;53.204;6.568;2022-12-10T07:10:05;-0.70;80.10
51801;DHT22;37855;53.204;6.568;2022-12-10T07:12:34;-0.70;80.10
51801;DHT22;37855;53.204;6.568;2022-12-10T07:14:59;-0.70;80.20
51801;DHT22;37855;53.204;6.568;2022-12-10T07:17:25;-0.70;80.20
51801;DHT22;37855;53.204;6.568;2022-12-10T07:19:50;-0.70;80.20
51801;DHT22;37855;53.204;6.568;2022-12-10T07:22:16;-0.70;80.20
51801;DHT22;37855;53.204;6.568;2022-12-10T07:24:42;-0.80;80.20
51801;DHT22;37855;53.204;6.568;2022-12-10T07:27:08;-0.80;80.20
51801;DHT22;37855;53.204;6.568;2022-12-10T07:29:34;-0.80;80.20
51801;DHT22;37855;53.204;6.568;2022-12-10T07:31:59;-0.80;80.20
51801;DHT22;37855;53.204;6.568;2022-12-10T07:34:25;-0.80;80.10
51801;DHT22;37855;53.204;6.568;2022-12-10T07:36:50;-0.80;80.20
51801;DHT22;37855;53.204;6.568;2022-12-10T07:39:16;-0.80;80.20
51801;DHT22;37855;53.204;6.568;2022-12-10T07:41:47;-0.80;80.10
51801;DHT22;37855;53.204;6.568;2022-12-10T07:44:13;-0.80;80.10
51801;DHT22;37855;53.204;6.568;2022-12-10T07:46:38;-0.80;80.10
51801;DHT22;37855;53.204;6.568;2022-12-10T07:49:04;-0.80;80.10
51801;DHT22;37855;53.204;6.568;2022-12-10T07:51:31;-0.80;80.10
51801;DHT22;37855;53.204;6.568;2022-12-10T07:53:56;-0.80;80.10
51801;DHT22;37855;53.204;6.568;2022-12-10T07:56:22;-0.80;79.90
51801;DHT22;37855;53.204;6.568;2022-12-10T07:58:48;-0.70;79.90
51801;DHT22;37855;53.204;6.568;2022-12-10T08:01:15;-0.80;79.90
51801;DHT22;37855;53.204;6.568;2022-12-10T08:03:41;-0.80;79.60
51801;DHT22;37855;53.204;6.568;2022-12-10T08:06:08;-0.80;79.80
51801;DHT22;37855;53.204;6.568;2022-12-10T08:08:34;-0.80;79.90
51801;DHT22;37855;53.204;6.568;2022-12-10T08:11:00;-0.90;79.90
51801;DHT22;37855;53.204;6.568;2022-12-10T08:13:27;-0.80;79.90
51801;DHT22;37855;53.204;6.568;2022-12-10T08:15:52;-0.80;79.80
51801;DHT22;37855;53.204;6.568;2022-12-10T08:18:18;-0.90;79.80
51801;DHT22;37855;53.204;6.568;2022-12-10T08:20:43;-0.90;79.70
51801;DHT22;37855;53.204;6.568;2022-12-10T08:23:09;-0.90;79.80
51801;DHT22;37855;53.204;6.568;2022-12-10T08:25:35;-0.90;79.70
51801;DHT22;37855;53.204;6.568;2022-12-10T08:28:01;-0.90;79.70
51801;DHT22;37855;53.204;6.568;2022-12-10T08:30:28;-0.90;79.80
51801;DHT22;37855;53.204;6.568;2022-12-10T08:32:53;-0.90;79.70
51801;DHT22;37855;53.204;6.568;2022-12-10T08:35:19;-0.80;79.80
51801;DHT22;37855;53.204;6.568;2022-12-10T08:37:45;-0.80;79.70
51801;DHT22;37855;53.204;6.568;2022-12-10T08:40:10;-0.80;79.70
51801;DHT22;37855;53.204;6.568;2022-12-10T08:42:36;-0.80;79.80
51801;DHT22;37855;53.204;6.568;2022-12-10T08:45:02;-0.80;79.80
51801;DHT22;37855;53.204;6.568;2022-12-10T08:47:27;-0.80;79.70
51801;DHT22;37855;53.204;6.568;2022-12-10T08:49:53;-0.80;79.70
51801;DHT22;37855;53.204;6.568;2022-12-10T08:52:18;-0.80;79.70
51801;DHT22;37855;53.204;6.568;2022-12-10T08:54:44;-0.80;79.70
51801;DHT22;37855;53.204;6.568;2022-12-10T08:57:09;-0.80;79.70
51801;DHT22;37855;53.204;6.568;2022-12-10T08:59:35;-0.80;79.70
51801;DHT22;37855;53.204;6.568;2022-12-10T09:02:01;-0.80;79.70
51801;DHT22;37855;53.204;6.568;2022-12-10T09:04:26;-0.80;79.70
51801;DHT22;37855;53.204;6.568;2022-12-10T09:06:52;-0.80;79.60
51801;DHT22;37855;53.204;6.568;2022-12-10T09:09:17;-0.80;79.60
51801;DHT22;37855;53.204;6.568;2022-12-10T09:11:43;-0.80;79.40
51801;DHT22;37855;53.204;6.568;2022-12-10T09:14:11;-0.80;79.30
51801;DHT22;37855;53.204;6.568;2022-12-10T09:16:36;-0.80;79.30
51801;DHT22;37855;53.204;6.568;2022-12-10T09:19:04;-0.80;79.30
51801;DHT22;37855;53.204;6.568;2022-12-10T09:21:30;-0.80;79.20
51801;DHT22;37855;53.204;6.568;2022-12-10T09:23:56;-0.80;79.20
51801;DHT22;37855;53.204;6.568;2022-12-10T09:26:23;-0.80;79.30
51801;DHT22;37855;53.204;6.568;2022-12-10T09:28:48;-0.90;79.30
51801;DHT22;37855;53.204;6.568;2022-12-10T09:31:15;-0.90;79.30
51801;DHT22;37855;53.204;6.568;2022-12-10T09:33:41;-0.90;79.40
51801;DHT22;37855;53.204;6.568;2022-12-10T09:36:07;-0.90;79.50
51801;DHT22;37855;53.204;6.568;2022-12-10T09:38:34;-0.90;79.50
51801;DHT22;37855;53.204;6.568;2022-12-10T09:41:04;-0.90;79.60
51801;DHT22;37855;53.204;6.568;2022-12-10T09:46:39;-0.80;79.70
51801;DHT22;37855;53.204;6.568;2022-12-10T09:51:42;-0.80;79.70
51801;DHT22;37855;53.204;6.568;2022-12-10T09:54:18;-0.70;79.70
51801;DHT22;37855;53.204;6.568;2022-12-10T09:56:49;-0.70;79.70
51801;DHT22;37855;53.204;6.568;2022-12-10T09:59:16;-0.70;79.60
51801;DHT22;37855;53.204;6.568;2022-12-10T10:01:43;-0.70;79.40
51801;DHT22;37855;53.204;6.568;2022-12-10T10:04:09;-0.60;79.30
51801;DHT22;37855;53.204;6.568;2022-12-10T10:06:36;-0.60;79.40
51801;DHT22;37855;53.204;6.568;2022-12-10T10:09:02;-0.60;79.40
51801;DHT22;37855;53.204;6.568;2022-12-10T10:11:30;-0.60;79.40
51801;DHT22;37855;53.204;6.568;2022-12-10T10:13:58;-0.60;79.50
51801;DHT22;37855;53.204;6.568;2022-12-10T10:16:26;-0.60;79.60
51801;DHT22;37855;53.204;6.568;2022-12-10T10:21:50;-0.60;79.60
51801;DHT22;37855;53.204;6.568;2022-12-10T10:24:18;-0.50;79.50
51801;DHT22;37855;53.204;6.568;2022-12-10T10:26:44;-0.50;79.50
51801;DHT22;37855;53.204;6.568;2022-12-10T10:29:11;-0.50;79.50
51801;DHT22;37855;53.204;6.568;2022-12-10T10:31:39;-0.50;79.30
51801;DHT22;37855;53.204;6.568;2022-12-10T10:34:06;-0.50;79.20
51801;DHT22;37855;53.204;6.568;2022-12-10T10:36:37;-0.50;79.10
51801;DHT22;37855;53.204;6.568;2022-12-10T10:39:07;-0.40;79.00
51801;DHT22;37855;53.204;6.568;2022-12-10T10:41:35;-0.40;78.90
51801;DHT22;37855;53.204;6.568;2022-12-10T10:44:03;-0.40;78.80
51801;DHT22;37855;53.204;6.568;2022-12-10T10:46:29;-0.30;78.80
51801;DHT22;37855;53.204;6.568;2022-12-10T10:49:11;-0.30;78.80
51801;DHT22;37855;53.204;6.568;2022-12-10T10:51:41;-0.30;78.80
51801;DHT22;37855;53.204;6.568;2022-12-10T10:54:07;-0.30;78.70
51801;DHT22;37855;53.204;6.568;2022-12-10T10:56:38;-0.30;78.70
51801;DHT22;37855;53.204;6.568;2022-12-10T10:59:50;-0.30;78.80
51801;DHT22;37855;53.204;6.568;2022-12-10T11:01:52;-0.30;78.90
51801;DHT22;37855;53.204;6.568;2022-12-10T11:04:37;-0.30;78.90
51801;DHT22;37855;53.204;6.568;2022-12-10T11:07:12;-0.20;79.00
51801;DHT22;37855;53.204;6.568;2022-12-10T11:09:40;-0.20;79.00
51801;DHT22;37855;53.204;6.568;2022-12-10T11:14:53;-0.20;78.90
51801;DHT22;37855;53.204;6.568;2022-12-10T11:17:20;-0.10;78.80
51801;DHT22;37855;53.204;6.568;2022-12-10T11:22:25;-0.10;78.70
51801;DHT22;37855;53.204;6.568;2022-12-10T11:24:52;-0.10;78.70
51801;DHT22;37855;53.204;6.568;2022-12-10T11:27:44;0.00;78.60
51801;DHT22;37855;53.204;6.568;2022-12-10T11:30:20;0.00;78.50
51801;DHT22;37855;53.204;6.568;2022-12-10T11:32:54;-0.10;78.30
51801;DHT22;37855;53.204;6.568;2022-12-10T11:40:45;0.00;78.80
51801;DHT22;37855;53.204;6.568;2022-12-10T11:51:06;0.40;77.30
51801;DHT22;37855;53.204;6.568;2022-12-10T11:53:37;0.40;77.40
51801;DHT22;37855;53.204;6.568;2022-12-10T11:56:11;0.30;77.50
51801;DHT22;37855;53.204;6.568;2022-12-10T11:58:52;0.30;77.60
51801;DHT22;37855;53.204;6.568;2022-12-10T12:14:51;0.10;78.40
51801;DHT22;37855;53.204;6.568;2022-12-10T12:22:35;0.10;78.60
51801;DHT22;37855;53.204;6.568;2022-12-10T12:25:05;0.10;78.70
51801;DHT22;37855;53.204;6.568;2022-12-10T12:27:39;0.10;78.70
51801;DHT22;37855;53.204;6.568;2022-12-10T12:30:20;0.20;78.80
51801;DHT22;37855;53.204;6.568;2022-12-10T12:37:48;0.30;78.90
51801;DHT22;37855;53.204;6.568;2022-12-10T12:43:01;0.30;78.90
51801;DHT22;37855;53.204;6.568;2022-12-10T12:45:32;0.30;79.00
51801;DHT22;37855;53.204;6.568;2022-12-10T12:48:09;0.30;79.00
51801;DHT22;37855;53.204;6.568;2022-12-10T12:50:42;0.30;79.10
51801;DHT22;37855;53.204;6.568;2022-12-10T12:53:09;0.30;79.10
51801;DHT22;37855;53.204;6.568;2022-12-10T12:58:42;0.30;79.00
51801;DHT22;37855;53.204;6.568;2022-12-10T13:03:43;0.20;79.20
51801;DHT22;37855;53.204;6.568;2022-12-10T13:08:46;0.20;79.40
51801;DHT22;37855;53.204;6.568;2022-12-10T13:13:41;0.10;79.50
51801;DHT22;37855;53.204;6.568;2022-12-10T13:24:17;0.30;79.70
51801;DHT22;37855;53.204;6.568;2022-12-10T13:29:28;0.20;79.70
51801;DHT22;37855;53.204;6.568;2022-12-10T13:32:03;0.30;79.70
51801;DHT22;37855;53.204;6.568;2022-12-10T13:34:30;0.20;79.90
51801;DHT22;37855;53.204;6.568;2022-12-10T13:47:27;0.30;79.90
51801;DHT22;37855;53.204;6.568;2022-12-10T13:49:57;0.30;79.90
51801;DHT22;37855;53.204;6.568;2022-12-10T13:52:29;0.30;79.90
51801;DHT22;37855;53.204;6.568;2022-12-10T13:54:58;0.30;79.90
51801;DHT22;37855;53.204;6.568;2022-12-10T14:02:42;0.40;79.90
51801;DHT22;37855;53.204;6.568;2022-12-10T14:05:24;0.40;79.90
51801;DHT22;37855;53.204;6.568;2022-12-10T14:07:53;0.30;80.00
51801;DHT22;37855;53.204;6.568;2022-12-10T14:10:26;0.40;80.00
51801;DHT22;37855;53.204;6.568;2022-12-10T14:12:53;0.40;80.10
51801;DHT22;37855;53.204;6.568;2022-12-10T14:15:22;0.40;80.10
51801;DHT22;37855;53.204;6.568;2022-12-10T14:17:49;0.40;80.10
51801;DHT22;37855;53.204;6.568;2022-12-10T14:20:22;0.40;80.20
51801;DHT22;37855;53.204;6.568;2022-12-10T14:22:52;0.40;80.20
51801;DHT22;37855;53.204;6.568;2022-12-10T14:25:22;0.40;80.30
51801;DHT22;37855;53.204;6.568;2022-12-10T14:27:51;0.40;80.30
51801;DHT22;37855;53.204;6.568;2022-12-10T14:32:43;0.40;80.30
51801;DHT22;37855;53.204;6.568;2022-12-10T14:35:13;0.40;80.30
51801;DHT22;37855;53.204;6.568;2022-12-10T14:37:40;0.40;80.20
51801;DHT22;37855;53.204;6.568;2022-12-10T14:40:07;0.40;80.20
51801;DHT22;37855;53.204;6.568;2022-12-10T14:42:33;0.50;80.20
51801;DHT22;37855;53.204;6.568;2022-12-10T14:45:00;0.40;80.20
51801;DHT22;37855;53.204;6.568;2022-12-10T14:47:27;0.50;80.20
51801;DHT22;37855;53.204;6.568;2022-12-10T14:49:57;0.50;80.20
51801;DHT22;37855;53.204;6.568;2022-12-10T14:52:30;0.50;80.20
51801;DHT22;37855;53.204;6.568;2022-12-10T14:54:58;0.40;80.20
51801;DHT22;37855;53.204;6.568;2022-12-10T14:57:38;0.40;80.30
51801;DHT22;37855;53.204;6.568;2022-12-10T15:00:19;0.50;80.30
51801;DHT22;37855;53.204;6.568;2022-12-10T15:02:59;0.50;80.20
51801;DHT22;37855;53.204;6.568;2022-12-10T15:05:27;0.40;80.40
51801;DHT22;37855;53.204;6.568;2022-12-10T15:10:26;0.40;80.40
51801;DHT22;37855;53.204;6.568;2022-12-10T15:12:53;0.40;80.40
51801;DHT22;37855;53.204;6.568;2022-12-10T15:15:21;0.50;80.40
51801;DHT22;37855;53.204;6.568;2022-12-10T15:17:53;0.50;80.50
51801;DHT22;37855;53.204;6.568;2022-12-10T15:20:21;0.50;80.40
51801;DHT22;37855;53.204;6.568;2022-12-10T15:22:48;0.50;80.50
51801;DHT22;37855;53.204;6.568;2022-12-10T15:25:21;0.50;80.50
51801;DHT22;37855;53.204;6.568;2022-12-10T15:27:57;0.40;80.30
51801;DHT22;37855;53.204;6.568;2022-12-10T15:30:24;0.40;80.50
51801;DHT22;37855;53.204;6.568;2022-12-10T15:32:49;0.40;80.60
51801;DHT22;37855;53.204;6.568;2022-12-10T15:35:15;0.40;80.50
51801;DHT22;37855;53.204;6.568;2022-12-10T15:37:41;0.40;80.50
51801;DHT22;37855;53.204;6.568;2022-12-10T15:40:20;0.70;81.20
51801;DHT22;37855;53.204;6.568;2022-12-10T15:42:46;0.80;80.40
51801;DHT22;37855;53.204;6.568;2022-12-10T15:45:15;0.80;80.00
51801;DHT22;37855;53.204;6.568;2022-12-10T15:47:41;0.70;79.80
51801;DHT22;37855;53.204;6.568;2022-12-10T15:50:08;0.70;79.70
51801;DHT22;37855;53.204;6.568;2022-12-10T15:52:33;0.70;79.80
51801;DHT22;37855;53.204;6.568;2022-12-10T15:55:00;0.60;79.80
51801;DHT22;37855;53.204;6.568;2022-12-10T15:57:27;0.60;80.00
51801;DHT22;37855;53.204;6.568;2022-12-10T15:59:54;0.60;80.00
51801;DHT22;37855;53.204;6.568;2022-12-10T16:04:45;0.60;80.20
51801;DHT22;37855;53.204;6.568;2022-12-10T16:07:11;0.60;80.20
51801;DHT22;37855;53.204;6.568;2022-12-10T16:09:37;0.60;80.20
51801;DHT22;37855;53.204;6.568;2022-12-10T16:12:02;0.50;80.20
51801;DHT22;37855;53.204;6.568;2022-12-10T16:14:28;0.50;80.30
51801;DHT22;37855;53.204;6.568;2022-12-10T16:16:54;0.50;80.30
51801;DHT22;37855;53.204;6.568;2022-12-10T16:19:19;0.60;80.30
51801;DHT22;37855;53.204;6.568;2022-12-10T16:21:45;0.60;80.30
51801;DHT22;37855;53.204;6.568;2022-12-10T16:24:12;0.60;80.20
51801;DHT22;37855;53.204;6.568;2022-12-10T16:26:37;0.60;80.30
51801;DHT22;37855;53.204;6.568;2022-12-10T16:29:03;0.60;80.30
51801;DHT22;37855;53.204;6.568;2022-12-10T16:31:29;0.50;80.30
51801;DHT22;37855;53.204;6.568;2022-12-10T16:33:55;0.50;80.30
51801;DHT22;37855;53.204;6.568;2022-12-10T16:36:21;0.50;80.20
51801;DHT22;37855;53.204;6.568;2022-12-10T16:38:47;0.50;80.20
51801;DHT22;37855;53.204;6.568;2022-12-10T16:41:17;0.60;80.40
